This is the latest recevied weather packets stored in our database for station/object K0SDS. If no packets are shown the sender has not sent any weather packets the latest 10 day(s).
| Time | Temp. | Humidity | Pressure | Rain* | Wind** | Luminosity | Snow |
|---|---|---|---|---|---|---|---|
| 1777420404 | 15.56° C | 68% | 1013.9 hPa | 0 mm | - | 42 W/m² | - |
| 1777420100 | 15.56° C | 68% | 1014.1 hPa | 0 mm | - | 121 W/m² | - |
| 1777419796 | 15.56° C | 69% | 1013.8 hPa | 0 mm | - | 129 W/m² | - |
| 1777419494 | 15.56° C | 68% | 1013.8 hPa | 0 mm | - | 61 W/m² | - |
| 1777419193 | 16.11° C | 63% | 1013.8 hPa | 0 mm | - | 57 W/m² | - |
| 1777418889 | 17.22° C | 61% | 1013.7 hPa | 0 mm | - | 67 W/m² | - |
| 1777418585 | 17.22° C | 61% | 1013.4 hPa | 0 mm | - | 211 W/m² | - |
| 1777418281 | 16.67° C | 63% | 1013.3 hPa | 0 mm | - | 239 W/m² | - |
| 1777417976 | 16.67° C | 66% | 1013.6 hPa | 0 mm | - | 189 W/m² | - |
| 1777417673 | 16.67° C | 64% | 1013.5 hPa | 0 mm | - | 65 W/m² | - |
| 1777417368 | 16.11° C | 67% | 1013.4 hPa | 0 mm | - | 196 W/m² | - |
| 1777417065 | 16.11° C | 68% | 1013.4 hPa | 0 mm | - | 228 W/m² | - |
| 1777416761 | 16.11° C | 67% | 1013.5 hPa | 0 mm | - | 108 W/m² | - |
| 1777416455 | 15.56° C | 67% | 1013.7 hPa | 0 mm | - | 118 W/m² | - |
| 1777416151 | 15.56° C | 69% | 1013.6 hPa | 0 mm | - | 163 W/m² | - |
| 1777415846 | 15.56° C | 70% | 1013.8 hPa | 0 mm | - | 135 W/m² | - |
| 1777415541 | 15.56° C | 69% | 1013.8 hPa | 0 mm | - | 144 W/m² | - |
| 1777415238 | 15.56° C | 67% | 1013.8 hPa | 0 mm | - | 144 W/m² | - |
| 1777414933 | 15.56° C | 68% | 1013.9 hPa | 0 mm | - | 124 W/m² | - |
| 1777414632 | 15.56° C | 69% | 1014 hPa | 0 mm | - | 121 W/m² | - |
| 1777414328 | 15.56° C | 68% | 1014 hPa | 0 mm | - | 173 W/m² | - |
| 1777414022 | 15.56° C | 71% | 1013.7 hPa | 0 mm | - | 184 W/m² | - |
| 1777413718 | 15.56° C | 69% | 1014 hPa | 0 mm | - | 125 W/m² | - |
| 1777413413 | 15.56° C | 68% | 1013.7 hPa | 0 mm | - | 115 W/m² | - |
| 1777413109 | 15.56° C | 69% | 1014 hPa | 0 mm | - | 130 W/m² | - |
* Rain latest hour (hover to see other rain measurements)
** Current wind speed in m/s (hover to see current wind gust speed)